createdAt,value
2023-04-16T00:02:24.648Z,9.40
2023-04-16T00:05:11.106Z,10.20
2023-04-16T00:07:57.511Z,9.23
2023-04-16T00:10:44.012Z,9.70
2023-04-16T00:13:30.436Z,9.77
2023-04-16T00:16:17.008Z,9.40
2023-04-16T00:19:04.647Z,9.83
2023-04-16T00:21:50.965Z,10.90
2023-04-16T00:24:37.545Z,9.63
2023-04-16T00:27:23.988Z,9.90
2023-04-16T00:30:10.905Z,9.17
2023-04-16T00:32:57.280Z,9.50
2023-04-16T00:35:46.574Z,9.17
2023-04-16T00:38:33.333Z,9.30
2023-04-16T00:41:19.759Z,9.10
2023-04-16T00:44:06.413Z,10.00
2023-04-16T00:46:53.151Z,10.27
2023-04-16T00:49:40.390Z,9.97
2023-04-16T00:52:31.164Z,9.67
2023-04-16T00:55:18.965Z,10.07
2023-04-16T00:58:05.764Z,10.20
2023-04-16T01:00:52.452Z,9.53
2023-04-16T01:03:41.016Z,10.03
2023-04-16T01:06:27.836Z,10.10
2023-04-16T01:09:17.704Z,9.43
2023-04-16T01:12:04.116Z,9.53
2023-04-16T01:14:50.797Z,10.30
2023-04-16T01:17:37.266Z,9.67
2023-04-16T01:20:23.811Z,10.40
2023-04-16T01:23:12.630Z,11.10
2023-04-16T01:25:59.052Z,11.83
2023-04-16T01:28:45.468Z,10.80
2023-04-16T01:31:32.003Z,10.53
2023-04-16T01:34:18.385Z,10.63
2023-04-16T01:37:05.202Z,10.57
2023-04-16T01:39:53.429Z,10.53
2023-04-16T01:42:40.239Z,9.90
2023-04-16T01:45:26.943Z,10.40
2023-04-16T01:48:13.550Z,10.20
2023-04-16T01:51:00.589Z,9.73
2023-04-16T01:53:47.220Z,9.37
2023-04-16T01:56:35.198Z,8.93
2023-04-16T01:59:21.854Z,8.70
2023-04-16T02:02:11.265Z,8.83
2023-04-16T02:04:58.401Z,8.93
2023-04-16T02:07:45.163Z,8.50
2023-04-16T02:10:31.808Z,8.77
2023-04-16T02:13:19.569Z,8.70
2023-04-16T02:16:06.855Z,8.57
2023-04-16T02:18:53.629Z,8.00
2023-04-16T02:21:40.007Z,8.20
2023-04-16T02:24:26.605Z,7.90
2023-04-16T02:27:13.087Z,7.70
2023-04-16T02:30:01.059Z,7.57
2023-04-16T02:32:47.417Z,7.00
2023-04-16T02:35:34.209Z,7.00
2023-04-16T02:38:20.804Z,7.10
2023-04-16T02:41:07.146Z,7.27
2023-04-16T02:43:53.668Z,7.30
2023-04-16T02:46:41.494Z,7.63
2023-04-16T02:49:27.862Z,10.13
2023-04-16T02:52:15.607Z,12.90
2023-04-16T02:55:02.647Z,13.97
2023-04-16T02:57:49.484Z,17.13
2023-04-16T03:00:36.043Z,18.83
2023-04-16T03:03:24.441Z,17.87
2023-04-16T03:06:11.547Z,17.33
2023-04-16T03:08:58.245Z,20.37
2023-04-16T03:11:44.701Z,18.93
2023-04-16T03:14:31.484Z,18.40
2023-04-16T03:17:17.885Z,18.83
2023-04-16T03:20:07.169Z,20.10
2023-04-16T03:22:53.906Z,18.67
2023-04-16T03:25:40.729Z,19.30
2023-04-16T03:28:27.129Z,17.73
2023-04-16T03:31:13.878Z,17.57
2023-04-16T03:34:00.210Z,18.73
2023-04-16T03:36:48.231Z,18.43
2023-04-16T03:39:35.102Z,18.40
2023-04-16T03:42:21.724Z,19.03
2023-04-16T03:45:09.605Z,19.47
2023-04-16T03:47:56.435Z,18.80
2023-04-16T03:50:47.444Z,19.73
2023-04-16T03:53:35.058Z,19.93
2023-04-16T03:56:21.754Z,21.00
2023-04-16T03:59:08.602Z,22.03
2023-04-16T04:01:55.399Z,21.27
2023-04-16T04:04:42.259Z,21.73
2023-04-16T04:07:29.133Z,21.40
2023-04-16T04:10:17.282Z,21.13
2023-04-16T04:13:05.144Z,21.33
2023-04-16T04:15:51.878Z,21.10
2023-04-16T04:18:38.941Z,22.20
2023-04-16T04:21:25.883Z,20.63
2023-04-16T04:24:12.712Z,21.23
2023-04-16T04:27:01.733Z,20.90
2023-04-16T04:29:48.180Z,22.37
2023-04-16T04:32:34.710Z,21.73
2023-04-16T04:35:21.506Z,21.90
2023-04-16T04:38:08.058Z,21.40
2023-04-16T04:40:54.561Z,21.67
2023-04-16T04:43:42.750Z,20.43
2023-04-16T04:46:29.393Z,20.27
2023-04-16T04:49:15.740Z,20.77
2023-04-16T04:52:02.498Z,22.90
2023-04-16T04:54:48.984Z,20.73
2023-04-16T04:57:35.336Z,19.83
2023-04-16T05:00:23.345Z,20.17
2023-04-16T05:03:12.474Z,20.00
2023-04-16T05:05:59.313Z,20.60
2023-04-16T05:08:45.655Z,18.90
2023-04-16T05:11:32.106Z,19.40
2023-04-16T05:14:18.421Z,18.53
2023-04-16T05:17:08.044Z,18.70
2023-04-16T05:19:55.044Z,19.50
2023-04-16T05:22:42.686Z,18.33
2023-04-16T05:25:29.444Z,19.37
2023-04-16T05:28:15.912Z,18.70
2023-04-16T05:31:02.286Z,18.47
2023-04-16T05:33:50.114Z,19.03
2023-04-16T05:36:36.695Z,18.33
2023-04-16T05:39:23.258Z,20.27
2023-04-16T05:42:09.599Z,17.57
2023-04-16T05:44:56.087Z,19.17
2023-04-16T05:47:42.390Z,18.43
2023-04-16T05:50:30.076Z,19.67
2023-04-16T05:53:18.922Z,20.17
2023-04-16T05:56:06.270Z,20.83
2023-04-16T05:58:52.998Z,22.13
2023-04-16T06:01:39.367Z,22.00
2023-04-16T06:04:26.290Z,21.57
2023-04-16T06:07:14.114Z,22.77
2023-04-16T06:10:00.417Z,22.73
2023-04-16T06:12:46.888Z,23.27
2023-04-16T06:15:33.306Z,23.57
2023-04-16T06:18:19.764Z,21.53
2023-04-16T06:21:06.327Z,22.10
2023-04-16T06:23:55.364Z,22.13
2023-04-16T06:26:41.695Z,23.20
2023-04-16T06:29:39.991Z,21.67
2023-04-16T06:32:27.892Z,21.00
2023-04-16T06:35:14.663Z,20.77
2023-04-16T06:38:01.265Z,20.57
2023-04-16T06:40:49.921Z,22.10
2023-04-16T06:43:36.455Z,20.37
2023-04-16T06:46:22.927Z,20.03
2023-04-16T06:49:09.703Z,19.43
2023-04-16T06:51:56.448Z,20.70
2023-04-16T06:54:42.909Z,19.17
2023-04-16T06:57:30.760Z,19.23
2023-04-16T07:00:17.241Z,17.87
2023-04-16T07:03:03.784Z,17.67
2023-04-16T07:05:50.583Z,17.03
2023-04-16T07:08:37.255Z,16.63
2023-04-16T07:11:23.815Z,16.13
2023-04-16T07:14:11.681Z,15.87
2023-04-16T07:16:58.553Z,14.67
2023-04-16T07:19:45.239Z,16.40
2023-04-16T07:22:32.059Z,14.97
2023-04-16T07:25:18.504Z,15.07
2023-04-16T07:28:04.946Z,15.40
2023-04-16T07:30:53.098Z,16.10
2023-04-16T07:33:39.504Z,16.63
2023-04-16T07:36:27.383Z,16.47
2023-04-16T07:39:14.089Z,16.00
2023-04-16T07:42:00.601Z,16.00
2023-04-16T07:44:47.033Z,16.03
2023-04-16T07:47:34.900Z,16.97
2023-04-16T07:50:21.320Z,17.23
2023-04-16T07:53:07.678Z,16.77
2023-04-16T07:55:54.125Z,16.97
2023-04-16T07:58:40.828Z,17.27
2023-04-16T08:01:27.731Z,16.87
2023-04-16T08:04:17.458Z,17.10
2023-04-16T08:07:04.167Z,16.23
2023-04-16T08:09:52.258Z,15.83
2023-04-16T08:12:38.918Z,15.57
2023-04-16T08:15:25.747Z,15.23
2023-04-16T08:18:12.805Z,14.50
2023-04-16T08:21:00.589Z,14.97
2023-04-16T08:23:47.100Z,14.60
2023-04-16T08:26:33.728Z,14.80
2023-04-16T08:29:20.757Z,14.70
2023-04-16T08:32:09.517Z,13.73
2023-04-16T08:34:56.160Z,14.37
2023-04-16T08:37:43.916Z,14.27
2023-04-16T08:40:31.096Z,14.03
2023-04-16T08:43:19.574Z,14.70
2023-04-16T08:46:06.831Z,13.53
2023-04-16T08:48:56.197Z,13.27
2023-04-16T08:51:44.381Z,13.00
2023-04-16T08:54:40.434Z,12.57
2023-04-16T08:57:37.539Z,13.63
2023-04-16T09:00:24.816Z,14.07
2023-04-16T09:03:11.657Z,14.73
2023-04-16T09:06:01.111Z,12.80
2023-04-16T09:08:49.052Z,12.33
2023-04-16T09:11:37.512Z,14.17
2023-04-16T09:14:23.935Z,13.37
2023-04-16T09:17:11.953Z,14.53
2023-04-16T09:19:58.630Z,14.30
2023-04-16T09:22:45.570Z,14.70
2023-04-16T09:25:35.718Z,14.13
2023-04-16T09:28:43.277Z,15.67
2023-04-16T09:31:30.056Z,13.63
2023-04-16T09:34:16.760Z,15.20
2023-04-16T09:37:19.127Z,15.17
2023-04-16T09:40:06.952Z,14.83
2023-04-16T09:42:54.681Z,15.53
2023-04-16T09:45:53.513Z,14.47
2023-04-16T09:48:40.338Z,16.33
2023-04-16T09:51:28.347Z,15.37
2023-04-16T09:54:15.516Z,16.33
2023-04-16T09:57:02.479Z,15.67
2023-04-16T09:59:50.325Z,15.43
2023-04-16T10:02:42.450Z,15.50
2023-04-16T10:05:29.418Z,15.20
2023-04-16T10:08:16.084Z,14.83
2023-04-16T10:11:03.760Z,15.33
2023-04-16T10:13:50.950Z,15.50
2023-04-16T10:16:40.012Z,15.80
2023-04-16T10:19:28.635Z,16.30
2023-04-16T10:22:15.350Z,15.43
2023-04-16T10:25:02.191Z,14.73
2023-04-16T10:27:49.309Z,15.60
2023-04-16T10:30:36.467Z,15.90
2023-04-16T10:33:24.476Z,15.87
2023-04-16T10:36:13.923Z,16.47
2023-04-16T10:39:01.734Z,16.30
2023-04-16T10:41:48.531Z,16.63
2023-04-16T10:44:35.490Z,15.10
2023-04-16T10:47:26.283Z,16.07
2023-04-16T10:50:17.519Z,17.30
2023-04-16T10:53:23.687Z,16.97
2023-04-16T10:56:14.111Z,16.40
2023-04-16T10:59:00.399Z,16.30
2023-04-16T11:01:48.530Z,16.50
2023-04-16T11:04:36.705Z,17.23
2023-04-16T11:07:33.348Z,16.90
2023-04-16T11:10:21.195Z,16.50
2023-04-16T11:13:08.961Z,16.23
2023-04-16T11:15:58.701Z,16.23
2023-04-16T11:18:51.569Z,16.20
2023-04-16T11:21:38.365Z,14.67
2023-04-16T11:24:26.200Z,15.97
2023-04-16T11:27:16.107Z,15.53
2023-04-16T11:30:05.310Z,14.63
2023-04-16T11:32:51.862Z,15.03
2023-04-16T11:35:39.180Z,15.20
2023-04-16T11:38:35.028Z,15.67
2023-04-16T11:41:22.805Z,15.23
2023-04-16T11:44:20.351Z,15.13
2023-04-16T11:47:07.614Z,15.43
2023-04-16T11:49:54.595Z,15.10
2023-04-16T11:52:41.341Z,14.93
2023-04-16T11:55:28.068Z,15.50
2023-04-16T11:58:16.340Z,15.83
2023-04-16T12:01:04.760Z,15.07
2023-04-16T12:03:51.707Z,14.93
2023-04-16T12:06:38.416Z,15.47
2023-04-16T12:09:25.864Z,15.37
2023-04-16T12:12:36.623Z,17.13
2023-04-16T12:15:22.918Z,17.07
2023-04-16T12:18:11.077Z,16.27
2023-04-16T12:20:57.526Z,16.93
2023-04-16T12:23:43.798Z,17.73
2023-04-16T12:26:38.318Z,17.50
2023-04-16T12:29:27.897Z,17.37
2023-04-16T12:32:23.635Z,16.70
2023-04-16T12:35:11.974Z,17.37
2023-04-16T12:37:58.697Z,16.50
2023-04-16T12:40:45.369Z,17.70
2023-04-16T12:43:31.723Z,17.23
2023-04-16T12:46:18.069Z,16.60
2023-04-16T12:49:04.546Z,17.77
2023-04-16T12:51:52.595Z,18.13
2023-04-16T12:54:39.309Z,16.33
2023-04-16T12:57:28.653Z,16.97
2023-04-16T13:00:17.212Z,16.13
2023-04-16T13:03:03.852Z,17.23
2023-04-16T13:05:50.530Z,15.90
2023-04-16T13:08:38.407Z,15.70
2023-04-16T13:11:25.078Z,17.10
2023-04-16T13:14:11.355Z,16.90
2023-04-16T13:16:57.630Z,17.20
2023-04-16T13:19:44.115Z,16.77
2023-04-16T13:22:30.490Z,17.67
2023-04-16T13:25:18.468Z,17.23
2023-04-16T13:28:04.729Z,17.87
2023-04-16T13:30:51.253Z,17.77
2023-04-16T13:33:38.564Z,16.40
2023-04-16T13:36:27.545Z,16.57
2023-04-16T13:39:14.113Z,16.60
2023-04-16T13:42:01.862Z,15.27
2023-04-16T13:44:52.927Z,16.40
2023-04-16T13:47:41.371Z,15.03
2023-04-16T13:50:27.677Z,14.37
2023-04-16T13:53:13.996Z,15.20
2023-04-16T13:56:00.358Z,14.57
2023-04-16T13:58:48.115Z,15.67
2023-04-16T14:01:34.508Z,15.63
2023-04-16T14:04:22.309Z,14.50
2023-04-16T14:07:09.139Z,14.03
2023-04-16T14:09:55.537Z,14.40
2023-04-16T14:12:42.115Z,14.90
2023-04-16T14:15:30.097Z,13.23
2023-04-16T14:18:16.610Z,12.97
2023-04-16T14:21:03.254Z,13.43
2023-04-16T14:23:49.543Z,13.17
2023-04-16T14:26:36.053Z,13.50
2023-04-16T14:29:22.593Z,14.53
2023-04-16T14:32:10.838Z,14.63
2023-04-16T14:34:57.639Z,14.93
2023-04-16T14:37:44.480Z,13.67
2023-04-16T14:40:31.162Z,15.90
2023-04-16T14:43:17.636Z,15.07
2023-04-16T14:46:06.413Z,15.87
2023-04-16T14:48:54.561Z,15.90
2023-04-16T14:51:41.714Z,16.43
2023-04-16T14:54:28.243Z,16.40
2023-04-16T14:57:15.057Z,17.23
2023-04-16T15:00:01.565Z,17.10
2023-04-16T15:02:48.546Z,17.63
2023-04-16T15:05:36.918Z,20.17
2023-04-16T15:08:24.122Z,15.60
2023-04-16T15:11:10.484Z,15.27
2023-04-16T15:13:57.184Z,15.77
2023-04-16T15:16:44.181Z,14.93
2023-04-16T15:19:31.417Z,14.53
2023-04-16T15:22:19.351Z,13.70
2023-04-16T15:25:07.118Z,13.63
2023-04-16T15:27:53.791Z,13.87
2023-04-16T15:30:41.370Z,13.77
2023-04-16T15:33:28.151Z,14.43
2023-04-16T15:36:14.535Z,14.63
2023-04-16T15:39:02.137Z,13.60
2023-04-16T15:42:00.632Z,13.83
2023-04-16T15:44:49.030Z,12.73
2023-04-16T15:47:36.297Z,13.93
2023-04-16T15:50:22.762Z,13.93
2023-04-16T15:53:09.645Z,13.77
2023-04-16T15:55:57.501Z,15.70
2023-04-16T15:58:44.084Z,14.43
2023-04-16T16:01:31.107Z,14.10
2023-04-16T16:04:17.738Z,14.97
2023-04-16T16:07:04.706Z,15.60
2023-04-16T16:09:52.965Z,16.30
2023-04-16T16:12:41.260Z,16.30
2023-04-16T16:15:27.537Z,15.37
2023-04-16T16:18:14.052Z,17.40
2023-04-16T16:21:00.920Z,16.77
2023-04-16T16:23:47.549Z,18.23
2023-04-16T16:26:33.961Z,18.50
2023-04-16T16:29:21.680Z,17.53
2023-04-16T16:32:07.996Z,15.73
2023-04-16T16:34:54.387Z,17.43
2023-04-16T16:37:41.256Z,17.20
2023-04-16T16:40:27.656Z,18.03
2023-04-16T16:43:14.155Z,19.33
2023-04-16T16:46:02.154Z,18.73
2023-04-16T16:48:48.448Z,18.27
2023-04-16T16:51:34.759Z,19.87
2023-04-16T16:54:21.160Z,20.13
2023-04-16T16:57:08.283Z,17.37
2023-04-16T16:59:55.578Z,17.90
2023-04-16T17:02:43.930Z,18.10
2023-04-16T17:05:31.010Z,18.50
2023-04-16T17:08:17.304Z,18.03
2023-04-16T17:11:04.246Z,18.63
2023-04-16T17:13:50.732Z,17.40
2023-04-16T17:16:38.650Z,16.50
2023-04-16T17:19:27.368Z,17.00
2023-04-16T17:22:14.107Z,17.38
2023-04-16T17:25:00.713Z,18.53
2023-04-16T17:27:47.031Z,17.77
2023-04-16T17:30:33.534Z,17.03
2023-04-16T17:33:20.531Z,17.10
2023-04-16T17:36:09.027Z,16.70
2023-04-16T17:38:55.601Z,16.43
2023-04-16T17:41:42.082Z,16.83
2023-04-16T17:44:28.452Z,17.33
2023-04-16T17:47:15.352Z,17.93
2023-04-16T17:50:01.815Z,17.37
2023-04-16T17:52:49.443Z,17.33
2023-04-16T17:55:35.924Z,17.50
2023-04-16T17:58:22.307Z,18.33
2023-04-16T18:01:08.762Z,17.67
2023-04-16T18:03:55.693Z,18.03
2023-04-16T18:06:42.476Z,19.77
2023-04-16T18:09:30.538Z,19.80
2023-04-16T18:12:16.878Z,19.57
2023-04-16T18:15:03.612Z,18.87
2023-04-16T18:17:49.912Z,18.97
2023-04-16T18:20:36.586Z,17.83
2023-04-16T18:23:23.082Z,17.07
2023-04-16T18:26:11.456Z,18.03
2023-04-16T18:28:59.584Z,16.87
2023-04-16T18:31:46.574Z,15.03
2023-04-16T18:34:33.279Z,16.63
2023-04-16T18:37:19.862Z,15.30
2023-04-16T18:40:10.540Z,15.40
2023-04-16T18:42:58.610Z,16.40
2023-04-16T18:45:45.036Z,16.03
2023-04-16T18:48:31.325Z,17.00
2023-04-16T18:51:17.689Z,16.53
2023-04-16T18:54:04.329Z,17.33
2023-04-16T18:56:51.119Z,17.33
2023-04-16T18:59:39.130Z,17.07
2023-04-16T19:02:26.161Z,16.80
2023-04-16T19:05:14.088Z,17.53
2023-04-16T19:08:00.833Z,16.83
2023-04-16T19:10:48.323Z,18.67
2023-04-16T19:13:34.680Z,19.53
2023-04-16T19:16:22.526Z,17.80
2023-04-16T19:19:09.401Z,18.13
2023-04-16T19:21:56.058Z,17.10
2023-04-16T19:24:42.335Z,17.93
2023-04-16T19:27:30.406Z,16.90
2023-04-16T19:30:17.089Z,17.07
2023-04-16T19:33:05.351Z,17.17
2023-04-16T19:35:51.635Z,17.53
2023-04-16T19:38:38.176Z,17.80
2023-04-16T19:41:24.431Z,17.77
2023-04-16T19:44:11.573Z,17.43
2023-04-16T19:46:57.892Z,16.57
2023-04-16T19:49:46.029Z,17.13
2023-04-16T19:52:37.269Z,17.33
2023-04-16T19:55:24.112Z,17.33
2023-04-16T19:58:11.051Z,18.07
2023-04-16T20:00:57.842Z,15.93
2023-04-16T20:03:44.293Z,16.03
2023-04-16T20:06:32.841Z,14.40
2023-04-16T20:09:20.117Z,12.67
2023-04-16T20:12:07.089Z,13.27
2023-04-16T20:14:53.895Z,13.47
2023-04-16T20:17:40.727Z,13.70
2023-04-16T20:20:27.267Z,11.93
2023-04-16T20:23:15.653Z,13.73
2023-04-16T20:26:02.300Z,13.40
2023-04-16T20:28:48.768Z,13.83
2023-04-16T20:31:35.174Z,11.57
2023-04-16T20:34:21.736Z,12.23
2023-04-16T20:37:08.112Z,12.20
2023-04-16T20:39:56.243Z,11.57
2023-04-16T20:42:46.108Z,11.63
2023-04-16T20:45:37.948Z,12.17
2023-04-16T20:48:24.817Z,11.53
2023-04-16T20:51:11.433Z,11.30
2023-04-16T20:53:57.947Z,10.63
2023-04-16T20:56:45.827Z,11.47
2023-04-16T20:59:32.329Z,11.10
2023-04-16T21:02:20.065Z,10.73
2023-04-16T21:05:10.255Z,10.40
2023-04-16T21:07:56.661Z,11.27
2023-04-16T21:10:43.016Z,10.53
2023-04-16T21:13:31.135Z,12.27
2023-04-16T21:16:18.489Z,12.00
2023-04-16T21:19:05.143Z,12.00
2023-04-16T21:21:51.895Z,12.50
2023-04-16T21:24:38.632Z,13.00
2023-04-16T21:27:24.911Z,12.53
2023-04-16T21:30:14.121Z,11.10
2023-04-16T21:33:00.734Z,11.50
2023-04-16T21:35:52.483Z,11.00
2023-04-16T21:38:39.095Z,12.13
2023-04-16T21:41:25.598Z,10.70
2023-04-16T21:44:11.989Z,10.87
2023-04-16T21:46:59.865Z,10.37
2023-04-16T21:49:46.594Z,10.23
2023-04-16T21:52:33.705Z,11.13
2023-04-16T21:55:20.360Z,10.23
2023-04-16T21:58:07.062Z,9.77
2023-04-16T22:00:54.945Z,9.93
2023-04-16T22:03:43.002Z,9.90
2023-04-16T22:06:29.439Z,9.33
2023-04-16T22:09:15.778Z,9.37
2023-04-16T22:12:02.331Z,9.13
2023-04-16T22:15:01.542Z,8.47
2023-04-16T22:17:49.386Z,8.70
2023-04-16T22:20:39.770Z,9.03
2023-04-16T22:23:26.884Z,8.10
2023-04-16T22:26:13.828Z,8.67
2023-04-16T22:29:00.581Z,9.20
2023-04-16T22:31:47.672Z,9.07
2023-04-16T22:34:34.375Z,9.70
2023-04-16T22:37:22.186Z,8.57
2023-04-16T22:40:10.874Z,9.17
2023-04-16T22:42:57.171Z,8.87
2023-04-16T22:45:46.032Z,8.50
2023-04-16T22:48:32.838Z,8.97
2023-04-16T22:51:21.334Z,9.23
2023-04-16T22:54:13.666Z,8.90
2023-04-16T22:57:01.203Z,8.40
2023-04-16T22:59:47.590Z,8.90
2023-04-16T23:02:34.291Z,8.13
2023-04-16T23:05:21.192Z,7.57
2023-04-16T23:08:07.957Z,8.47
2023-04-16T23:10:57.053Z,8.60
2023-04-16T23:13:43.635Z,8.70
2023-04-16T23:16:29.956Z,8.03
2023-04-16T23:19:16.619Z,8.30
2023-04-16T23:22:03.830Z,8.13
2023-04-16T23:24:50.460Z,8.27
2023-04-16T23:27:38.632Z,8.87
2023-04-16T23:30:24.820Z,8.77
2023-04-16T23:33:11.290Z,8.63
2023-04-16T23:35:57.733Z,8.13
2023-04-16T23:38:44.295Z,9.00
2023-04-16T23:41:30.675Z,8.10
2023-04-16T23:44:18.501Z,8.53
2023-04-16T23:47:05.440Z,8.77
2023-04-16T23:49:52.104Z,8.83
2023-04-16T23:52:38.573Z,8.50
2023-04-16T23:55:25.326Z,8.07
2023-04-16T23:58:11.813Z,7.60
